Time;durP1;ratioP1;P1;durP2;ratioP2;P2;SDS_P1;SDS_P2;PMS_P1;PMS_P2;Temp;Humidity;BMP_temperature;BMP_pressure;BME280_temperature;BME280_humidity;BME280_pressure;Samples;Min_cycle;Max_cycle;Signal;HPM_P1;HPM_P2
2022/01/22 00:01:51;;;;;;;9.15;5.50;;;7.10;99.90;;;;;;5037598;28;20135;-72
2022/01/22 00:04:17;;;;;;;16.25;6.05;;;7.10;99.90;;;;;;5055609;28;20098;-70
2022/01/22 00:06:42;;;;;;;13.45;5.95;;;7.10;99.90;;;;;;5055389;28;20485;-70
2022/01/22 00:09:09;;;;;;;14.20;5.70;;;7.20;99.90;;;;;;5054977;28;20029;-71
2022/01/22 00:11:38;;;;;;;14.10;6.00;;;7.10;99.90;;;;;;5037257;28;20486;-71
2022/01/22 00:16:48;;;;;;;11.63;4.40;;;7.20;99.90;;;;;;5095015;22;20570;-73
2022/01/22 00:19:14;;;;;;;17.63;4.35;;;7.10;99.90;;;;;;5075672;28;20028;-73
2022/01/22 00:21:40;;;;;;;9.68;4.28;;;7.20;99.90;;;;;;5075877;28;20048;-73
2022/01/22 00:24:08;;;;;;;14.65;3.60;;;7.20;99.90;;;;;;5075465;28;20100;-72
2022/01/22 00:26:33;;;;;;;10.98;3.47;;;7.20;99.90;;;;;;5057460;28;20054;-73
2022/01/22 00:28:59;;;;;;;11.13;2.97;;;7.20;99.90;;;;;;5057561;28;20393;-73
2022/01/22 00:31:25;;;;;;;12.18;2.95;;;7.10;99.90;;;;;;5076768;28;20098;-73
2022/01/22 00:33:51;;;;;;;12.27;3.30;;;7.10;99.90;;;;;;5086155;28;20366;-73
2022/01/22 00:36:16;;;;;;;16.30;4.10;;;7.20;99.90;;;;;;5078868;28;20101;-74
2022/01/22 00:38:42;;;;;;;15.98;3.85;;;7.20;99.90;;;;;;5076093;28;20095;-73
2022/01/22 00:41:08;;;;;;;17.13;4.18;;;7.20;99.90;;;;;;5075276;28;20497;-73
2022/01/22 00:43:33;;;;;;;10.45;3.40;;;7.20;99.90;;;;;;5075236;28;20027;-73
2022/01/22 00:45:59;;;;;;;22.20;4.30;;;7.10;99.90;;;;;;5075010;28;20033;-73
2022/01/22 00:48:25;;;;;;;14.63;3.63;;;7.20;99.90;;;;;;5075234;28;20020;-73
2022/01/22 00:50:54;;;;;;;14.15;4.20;;;7.20;99.90;;;;;;5075248;28;20021;-74
2022/01/22 00:53:19;;;;;;;15.63;3.47;;;7.10;99.90;;;;;;5057294;28;20374;-73
2022/01/22 00:55:45;;;;;;;13.63;3.53;;;7.20;99.90;;;;;;5075842;28;20031;-74
2022/01/22 00:58:11;;;;;;;12.80;4.55;;;7.20;99.90;;;;;;5080378;28;20044;-74
2022/01/22 01:00:36;;;;;;;16.88;4.72;;;7.20;99.90;;;;;;5081873;28;20171;-73
2022/01/22 01:03:02;;;;;;;23.02;4.75;;;7.20;99.90;;;;;;5074796;28;20052;-73
2022/01/22 01:05:28;;;;;;;13.65;3.47;;;7.20;99.90;;;;;;5056885;28;20028;-73
2022/01/22 01:07:53;;;;;;;17.13;4.15;;;7.20;99.90;;;;;;5057582;28;20386;-73
2022/01/22 01:10:20;;;;;;;16.55;4.55;;;7.20;99.90;;;;;;5077434;28;20051;-73
2022/01/22 01:12:47;;;;;;;17.42;4.47;;;7.20;99.90;;;;;;5083882;28;20016;-73
2022/01/22 01:15:37;;;;;;;22.00;5.05;;;7.20;99.90;;;;;;5076217;28;20055;-73
2022/01/22 01:32:10;;;;;;;14.95;4.28;;;7.30;99.90;;;;;;5075321;28;20024;-73
2022/01/22 01:34:42;;;;;;;16.80;5.25;;;7.30;99.90;;;;;;5074209;28;20043;-72
2022/01/22 01:37:10;;;;;;;17.05;4.88;;;7.30;99.90;;;;;;5073957;28;20024;-73
2022/01/22 01:39:38;;;;;;;23.95;5.75;;;7.30;99.90;;;;;;5074319;28;20027;-73
2022/01/22 01:42:14;;;;;;;20.40;5.32;;;7.30;99.90;;;;;;5073882;28;20025;-73
2022/01/22 01:44:40;;;;;;;17.10;4.72;;;7.30;99.90;;;;;;5074127;28;20031;-72
2022/01/22 01:47:08;;;;;;;27.85;6.38;;;7.20;99.90;;;;;;5073868;28;20020;-73
2022/01/22 01:49:35;;;;;;;18.33;4.95;;;7.30;99.90;;;;;;5074482;28;20473;-73
2022/01/22 01:52:04;;;;;;;20.77;6.05;;;7.30;99.90;;;;;;5060026;28;20036;-73
2022/01/22 01:59:46;;;;;;;20.58;4.90;;;7.30;99.90;;;;;;5076437;28;20035;-74
2022/01/22 02:02:13;;;;;;;24.23;5.50;;;7.30;99.90;;;;;;5085016;28;20016;-74
2022/01/22 02:04:39;;;;;;;22.50;6.22;;;7.30;99.90;;;;;;5084937;28;20020;-73
2022/01/22 02:07:06;;;;;;;24.05;5.18;;;7.20;99.90;;;;;;5089006;28;20028;-72
2022/01/22 02:09:33;;;;;;;18.98;6.07;;;7.20;99.90;;;;;;5083872;28;20051;-72
2022/01/22 02:12:12;;;;;;;16.50;5.20;;;7.20;99.90;;;;;;5056217;28;20040;-72
2022/01/22 02:25:21;;;;;;;26.67;5.80;;;7.30;99.90;;;;;;5077209;28;20027;-71
2022/01/22 02:27:48;;;;;;;19.27;6.00;;;7.30;99.90;;;;;;5077645;28;20080;-71
2022/01/22 02:30:20;;;;;;;23.05;6.45;;;7.30;99.90;;;;;;5078112;28;20020;-71
2022/01/22 02:35:30;;;;;;;23.95;6.10;;;7.30;99.90;;;;;;5077526;28;20028;-72
2022/01/22 02:38:02;;;;;;;22.30;5.40;;;7.30;99.90;;;;;;5059988;28;20414;-72
2022/01/22 02:40:32;;;;;;;17.95;5.72;;;7.30;99.90;;;;;;5078691;28;20016;-72
2022/01/22 02:43:01;;;;;;;30.42;6.88;;;7.20;99.90;;;;;;5078171;28;20040;-72
2022/01/22 02:45:26;;;;;;;24.88;5.85;;;7.20;99.90;;;;;;5077503;28;20103;-72
2022/01/22 02:47:53;;;;;;;19.67;4.57;;;7.20;99.90;;;;;;5077544;28;20108;-73
2022/01/22 02:50:19;;;;;;;21.85;5.15;;;7.20;99.90;;;;;;5077475;28;20037;-69
2022/01/22 02:52:46;;;;;;;15.43;4.90;;;7.20;99.90;;;;;;5077141;28;20043;-69
2022/01/22 02:55:13;;;;;;;26.80;5.50;;;7.20;99.90;;;;;;5077216;28;20036;-69
2022/01/22 02:57:41;;;;;;;24.90;5.57;;;7.20;99.90;;;;;;5076863;28;20110;-70
2022/01/22 03:00:11;;;;;;;22.13;4.35;;;7.20;99.90;;;;;;5076570;28;20036;-70
2022/01/22 03:02:37;;;;;;;13.52;4.22;;;7.20;99.90;;;;;;5077073;28;20025;-70
2022/01/22 03:05:04;;;;;;;13.60;4.28;;;7.20;99.90;;;;;;5059098;28;20029;-70
2022/01/22 03:07:30;;;;;;;20.63;4.00;;;7.20;99.90;;;;;;5076822;28;20020;-70
2022/01/22 03:10:01;;;;;;;14.10;4.32;;;7.20;99.90;;;;;;5077181;28;20070;-70
2022/01/22 03:20:21;;;;;;;19.48;3.60;;;7.20;99.90;;;;;;5078662;28;20020;-72
2022/01/22 03:27:56;;;;;;;11.90;2.70;;;7.20;99.90;;;;;;5077471;28;20112;-72
2022/01/22 03:30:22;;;;;;;12.43;3.25;;;7.20;99.90;;;;;;5077728;28;20044;-72
2022/01/22 03:32:51;;;;;;;9.60;2.67;;;7.20;99.90;;;;;;5077459;28;20103;-71
2022/01/22 03:37:51;;;;;;;7.05;3.03;;;7.20;99.90;;;;;;5076875;28;20021;-71
2022/01/22 03:40:21;;;;;;;10.52;2.95;;;7.20;99.90;;;;;;5074174;28;20028;-72
2022/01/22 03:42:47;;;;;;;12.25;2.85;;;7.20;99.90;;;;;;5076949;28;20055;-73
2022/01/22 03:45:13;;;;;;;12.55;2.58;;;7.20;99.90;;;;;;5079580;28;20030;-72
2022/01/22 03:47:39;;;;;;;4.45;2.30;;;7.20;99.90;;;;;;5088617;28;20025;-73
2022/01/22 03:50:07;;;;;;;8.57;1.98;;;7.20;99.90;;;;;;5084191;28;20137;-73
2022/01/22 03:52:33;;;;;;;10.43;2.22;;;7.20;99.90;;;;;;5080648;28;20078;-72
2022/01/22 03:54:58;;;;;;;6.65;2.70;;;7.20;99.90;;;;;;5076549;28;20025;-72
2022/01/22 03:57:24;;;;;;;7.47;2.67;;;7.20;99.90;;;;;;5077939;28;20497;-73
2022/01/22 03:59:52;;;;;;;7.20;3.08;;;7.20;99.90;;;;;;5083986;28;20016;-72
2022/01/22 04:04:52;;;;;;;10.27;3.88;;;7.20;99.90;;;;;;5070848;28;20021;-72
2022/01/22 04:10:04;;;;;;;7.82;2.97;;;7.20;99.90;;;;;;5070032;28;20025;-69
2022/01/22 04:12:41;;;;;;;10.80;3.53;;;7.10;99.90;;;;;;5058325;28;20378;-69
2022/01/22 04:15:10;;;;;;;13.25;3.88;;;7.10;99.90;;;;;;5057154;28;20125;-72
2022/01/22 04:25:34;;;;;;;12.77;3.65;;;7.10;99.90;;;;;;5075427;28;20043;-70
2022/01/22 04:28:00;;;;;;;15.65;4.43;;;7.00;99.90;;;;;;5075606;28;20492;-70
2022/01/22 04:30:29;;;;;;;16.83;4.13;;;7.00;99.90;;;;;;5075518;28;20044;-69
2022/01/22 04:32:55;;;;;;;9.32;3.42;;;7.00;99.90;;;;;;5075570;28;20031;-69
2022/01/22 04:35:24;;;;;;;11.80;3.22;;;7.00;99.90;;;;;;5078134;28;20076;-70
2022/01/22 04:37:50;;;;;;;8.05;2.72;;;7.00;99.90;;;;;;5082773;28;20016;-69
2022/01/22 04:40:16;;;;;;;10.35;3.00;;;7.00;99.90;;;;;;5081755;28;20017;-70
2022/01/22 04:42:42;;;;;;;9.00;3.20;;;6.90;99.90;;;;;;5085418;28;20103;-71
2022/01/22 04:55:39;;;;;;;4.10;2.20;;;6.90;99.90;;;;;;5063102;28;20474;-70
2022/01/22 04:58:06;;;;;;;7.35;2.10;;;6.90;99.90;;;;;;5063796;28;20103;-70
2022/01/22 05:00:36;;;;;;;5.03;2.05;;;6.90;99.90;;;;;;5047021;28;20029;-70
2022/01/22 05:03:03;;;;;;;5.32;1.58;;;6.90;99.90;;;;;;5045003;28;20099;-70
2022/01/22 05:05:30;;;;;;;4.78;1.58;;;6.80;99.90;;;;;;5062458;28;20501;-70
2022/01/22 05:07:56;;;;;;;3.50;1.75;;;6.90;99.90;;;;;;5064056;28;20020;-70
2022/01/22 05:10:22;;;;;;;3.55;1.52;;;6.90;99.90;;;;;;5062130;28;20102;-70
2022/01/22 05:12:48;;;;;;;3.70;1.55;;;6.90;99.90;;;;;;5064962;28;20028;-70
2022/01/22 05:15:16;;;;;;;2.47;1.70;;;6.90;99.90;;;;;;5058778;28;20032;-70
2022/01/22 05:17:43;;;;;;;4.93;2.17;;;6.90;99.90;;;;;;5061997;28;20021;-70
2022/01/22 05:20:19;;;;;;;3.72;2.20;;;6.90;99.90;;;;;;5062523;28;20024;-70
2022/01/22 05:25:26;;;;;;;6.47;2.60;;;6.90;99.90;;;;;;5063736;28;20020;-70
2022/01/22 05:38:12;;;;;;;5.85;2.83;;;6.80;99.90;;;;;;5061087;28;20558;-70
2022/01/22 05:40:38;;;;;;;5.88;2.42;;;6.80;99.90;;;;;;5066285;28;20127;-70
2022/01/22 05:43:04;;;;;;;7.35;2.65;;;6.80;99.90;;;;;;5063933;28;20032;-70
2022/01/22 05:45:30;;;;;;;11.80;2.83;;;6.90;99.90;;;;;;5045578;28;20107;-70
2022/01/22 05:47:56;;;;;;;8.70;2.25;;;6.80;99.90;;;;;;5062214;28;20055;-70
2022/01/22 05:51:00;;;;;;;11.48;2.65;;;6.80;99.90;;;;;;5061068;28;20024;-70
2022/01/22 05:53:34;;;;;;;15.70;2.90;;;6.80;99.90;;;;;;5059453;28;20095;-70
2022/01/22 06:01:16;;;;;;;15.35;3.30;;;6.80;99.90;;;;;;5064572;28;20501;-70
2022/01/22 06:03:43;;;;;;;12.23;3.85;;;6.80;99.90;;;;;;5062628;28;20053;-70
2022/01/22 06:06:09;;;;;;;28.30;3.30;;;6.90;99.90;;;;;;5060573;28;20028;-70
2022/01/22 06:08:44;;;;;;;17.17;3.78;;;6.90;99.90;;;;;;5063612;28;20017;-69
2022/01/22 06:11:11;;;;;;;21.85;3.85;;;6.90;99.90;;;;;;5045270;28;20444;-70
2022/01/22 06:13:44;;;;;;;24.88;3.58;;;6.80;99.90;;;;;;5062507;28;20024;-70
2022/01/22 06:16:11;;;;;;;11.65;4.03;;;6.90;99.90;;;;;;5068299;28;20051;-69
2022/01/22 06:18:36;;;;;;;20.13;5.28;;;6.80;99.90;;;;;;5068158;28;20063;-70
2022/01/22 06:21:03;;;;;;;18.98;5.47;;;6.80;99.90;;;;;;5061962;28;20536;-70
2022/01/22 06:23:29;;;;;;;19.30;5.82;;;6.90;99.90;;;;;;5044827;28;20032;-70
2022/01/22 06:25:58;;;;;;;19.48;4.97;;;6.80;99.90;;;;;;5058921;28;20036;-70
2022/01/22 06:28:23;;;;;;;15.35;5.57;;;6.90;99.90;;;;;;5063340;28;20052;-70
2022/01/22 06:30:49;;;;;;;17.27;5.05;;;6.90;99.90;;;;;;5064176;28;20424;-71
2022/01/22 06:33:15;;;;;;;26.70;6.07;;;6.90;99.90;;;;;;5063168;28;20033;-71
2022/01/22 06:35:41;;;;;;;17.95;6.03;;;6.90;99.90;;;;;;5092026;22;20086;-69
2022/01/22 06:38:08;;;;;;;16.90;4.72;;;6.90;99.90;;;;;;5049202;28;20021;-70
2022/01/22 06:43:04;;;;;;;18.77;5.68;;;6.90;99.90;;;;;;5046899;28;20500;-69
2022/01/22 06:45:30;;;;;;;27.40;5.78;;;6.90;99.90;;;;;;5052671;28;20602;-69
2022/01/22 06:47:56;;;;;;;17.48;4.40;;;6.90;99.90;;;;;;5034590;28;20025;-69
2022/01/22 06:50:22;;;;;;;10.68;4.82;;;6.90;99.90;;;;;;5015906;28;20117;-69
2022/01/22 06:52:55;;;;;;;22.83;5.38;;;6.80;99.90;;;;;;5034270;28;20033;-69
2022/01/22 06:55:27;;;;;;;16.45;4.82;;;6.80;99.90;;;;;;5021695;28;20026;-69
2022/01/22 06:57:53;;;;;;;16.80;4.60;;;6.80;99.90;;;;;;5034629;28;20095;-71
2022/01/22 07:00:18;;;;;;;17.65;4.32;;;6.80;99.90;;;;;;5034283;28;20029;-69
2022/01/22 07:02:44;;;;;;;30.35;4.50;;;6.80;99.90;;;;;;5037194;28;20027;-69
2022/01/22 07:05:09;;;;;;;13.95;4.20;;;6.80;99.90;;;;;;5039764;28;20112;-69
2022/01/22 07:07:36;;;;;;;12.20;3.85;;;6.80;99.90;;;;;;5039134;28;20021;-70
2022/01/22 07:10:02;;;;;;;15.80;5.18;;;6.80;99.90;;;;;;5038715;28;20029;-70
2022/01/22 07:12:27;;;;;;;20.77;5.35;;;6.80;99.90;;;;;;5038888;28;20025;-70
2022/01/22 07:14:53;;;;;;;14.35;4.80;;;6.70;99.90;;;;;;5039905;28;20025;-70
2022/01/22 07:17:19;;;;;;;14.48;4.18;;;6.80;99.90;;;;;;5040048;28;20532;-70
2022/01/22 07:19:44;;;;;;;19.27;5.50;;;6.80;99.90;;;;;;5040501;28;20018;-70
2022/01/22 07:23:00;;;;;;;18.67;5.35;;;6.80;99.90;;;;;;5045076;28;20494;-70
2022/01/22 07:24:59;;;;;;;17.70;4.80;;;6.80;99.90;;;;;;5030236;28;20440;-70
2022/01/22 07:27:25;;;;;;;22.75;5.43;;;6.80;99.90;;;;;;5038692;28;20049;-70
2022/01/22 07:29:50;;;;;;;18.48;5.13;;;6.70;99.90;;;;;;5037105;28;20108;-70
2022/01/22 07:32:26;;;;;;;14.82;4.85;;;6.80;99.90;;;;;;5037312;28;20061;-70
2022/01/22 07:34:52;;;;;;;13.48;4.40;;;6.80;99.90;;;;;;5020059;28;20029;-70
2022/01/22 07:37:17;;;;;;;12.82;5.30;;;6.90;99.90;;;;;;5019250;28;20036;-70
2022/01/22 07:39:43;;;;;;;17.23;5.32;;;6.90;99.90;;;;;;5037767;28;20029;-70
2022/01/22 07:42:09;;;;;;;17.83;4.57;;;6.80;99.90;;;;;;5036681;28;20108;-69
2022/01/22 07:44:34;;;;;;;18.85;5.32;;;6.80;99.90;;;;;;5037967;28;20051;-71
2022/01/22 07:47:00;;;;;;;17.30;5.68;;;6.80;99.90;;;;;;5020314;28;20033;-71
2022/01/22 07:49:26;;;;;;;16.58;6.00;;;6.80;99.90;;;;;;5038882;28;20025;-71
2022/01/22 07:51:51;;;;;;;16.40;5.13;;;6.80;99.90;;;;;;5031624;28;20105;-70
2022/01/22 07:54:17;;;;;;;17.67;5.78;;;6.90;99.90;;;;;;5020538;28;20037;-70
2022/01/22 07:56:43;;;;;;;19.65;6.70;;;6.90;99.90;;;;;;5024662;28;20085;-69
2022/01/22 07:59:08;;;;;;;13.23;5.70;;;6.90;99.90;;;;;;5035698;28;20021;-70
2022/01/22 08:01:34;;;;;;;22.48;7.10;;;6.80;99.90;;;;;;5028233;28;20030;-69
2022/01/22 08:04:00;;;;;;;20.92;5.63;;;6.80;99.90;;;;;;5022936;28;20030;-69
2022/01/22 08:06:26;;;;;;;19.80;7.47;;;6.90;99.90;;;;;;5017132;28;20049;-69
2022/01/22 08:08:52;;;;;;;19.13;6.97;;;6.90;99.90;;;;;;5023703;28;20411;-69
2022/01/22 08:11:17;;;;;;;14.55;6.35;;;6.90;99.90;;;;;;5026118;28;20026;-69
2022/01/22 08:13:42;;;;;;;26.73;8.27;;;6.90;99.90;;;;;;5027877;28;20041;-69
2022/01/22 08:16:08;;;;;;;19.70;7.57;;;6.90;99.90;;;;;;5030606;28;20509;-68
2022/01/22 08:18:34;;;;;;;19.15;8.40;;;6.90;99.90;;;;;;5035383;28;20028;-68
2022/01/22 08:21:00;;;;;;;17.70;8.20;;;6.90;99.90;;;;;;5035087;28;20383;-68
2022/01/22 08:23:25;;;;;;;19.23;8.38;;;7.00;99.90;;;;;;5035463;28;20403;-69
2022/01/22 08:25:51;;;;;;;18.52;7.72;;;6.90;99.90;;;;;;5034092;28;20021;-70
2022/01/22 08:31:16;;;;;;;17.77;7.22;;;6.90;99.90;;;;;;5033454;28;20107;-69
2022/01/22 08:36:26;;;;;;;20.77;8.13;;;6.90;99.90;;;;;;5026918;28;20000;-69
2022/01/22 08:38:52;;;;;;;21.67;7.85;;;6.90;99.90;;;;;;5016567;28;20490;-69
2022/01/22 08:41:17;;;;;;;23.17;8.43;;;7.00;99.90;;;;;;5033456;28;20032;-69
2022/01/22 08:43:43;;;;;;;21.67;8.25;;;7.00;99.90;;;;;;5036640;28;20159;-68
2022/01/22 08:46:08;;;;;;;16.35;7.38;;;7.00;99.90;;;;;;5018080;28;20033;-69
2022/01/22 08:48:34;;;;;;;21.85;7.80;;;7.00;99.90;;;;;;5035677;28;20083;-69
2022/01/22 08:50:59;;;;;;;12.52;6.18;;;7.00;99.90;;;;;;5034186;28;20104;-69
2022/01/22 08:53:25;;;;;;;12.43;5.57;;;7.00;99.90;;;;;;5017805;28;20021;-70
2022/01/22 08:55:51;;;;;;;14.15;5.70;;;7.00;99.90;;;;;;5037079;28;20036;-69
2022/01/22 08:58:17;;;;;;;11.10;4.70;;;7.00;99.90;;;;;;5038125;28;20029;-69
2022/01/22 09:00:43;;;;;;;9.00;4.25;;;7.00;99.90;;;;;;5037521;28;20072;-69
2022/01/22 09:03:10;;;;;;;7.88;4.40;;;7.10;99.90;;;;;;5018585;28;20457;-69
2022/01/22 09:05:36;;;;;;;6.35;3.80;;;7.10;99.90;;;;;;5035716;28;20509;-69
2022/01/22 09:08:04;;;;;;;6.43;3.70;;;7.00;99.90;;;;;;5035784;28;20026;-69
2022/01/22 09:10:29;;;;;;;5.30;3.58;;;7.10;99.90;;;;;;5036946;28;20028;-69
2022/01/22 09:12:55;;;;;;;6.10;3.35;;;7.10;99.90;;;;;;5037019;28;20033;-69
2022/01/22 09:15:20;;;;;;;5.00;2.92;;;7.10;99.90;;;;;;5035820;28;20025;-69
2022/01/22 09:17:48;;;;;;;4.80;2.78;;;7.10;99.90;;;;;;5017197;28;20022;-69
2022/01/22 09:20:29;;;;;;;3.63;2.65;;;7.10;99.90;;;;;;5017056;28;20030;-69
2022/01/22 09:22:55;;;;;;;3.63;2.47;;;7.10;99.90;;;;;;5035281;28;20022;-69
2022/01/22 09:25:21;;;;;;;2.90;2.00;;;7.20;99.90;;;;;;5034780;28;20072;-69
2022/01/22 09:27:46;;;;;;;2.65;1.92;;;7.20;99.90;;;;;;5035137;28;20017;-70
2022/01/22 09:30:12;;;;;;;4.07;2.40;;;7.20;99.90;;;;;;5036062;28;20339;-68
2022/01/22 09:32:38;;;;;;;3.00;2.00;;;7.30;99.90;;;;;;5036916;28;20026;-68
2022/01/22 09:35:04;;;;;;;3.28;2.33;;;7.30;99.90;;;;;;5036643;28;20060;-71
2022/01/22 09:37:31;;;;;;;5.32;2.65;;;7.30;99.90;;;;;;5017741;28;20513;-71
2022/01/22 09:39:57;;;;;;;5.85;2.60;;;7.30;99.90;;;;;;5036561;28;20029;-72
2022/01/22 09:42:22;;;;;;;6.88;3.50;;;7.30;99.90;;;;;;5037720;28;20029;-71
2022/01/22 09:44:48;;;;;;;4.20;2.85;;;7.30;99.90;;;;;;5017450;28;20029;-71
2022/01/22 09:47:18;;;;;;;6.88;2.65;;;7.30;99.90;;;;;;5034866;28;20033;-70
2022/01/22 09:49:44;;;;;;;6.72;3.50;;;7.30;99.90;;;;;;5017013;28;20032;-71
2022/01/22 09:52:09;;;;;;;5.13;3.47;;;7.30;99.90;;;;;;5035215;28;20037;-71
2022/01/22 09:54:35;;;;;;;6.40;3.78;;;7.30;99.90;;;;;;5019235;28;20025;-71
2022/01/22 09:57:03;;;;;;;8.98;4.78;;;7.30;99.90;;;;;;5036764;28;20513;-70
2022/01/22 09:59:29;;;;;;;9.40;4.85;;;7.30;99.90;;;;;;5034382;28;20018;-71
2022/01/22 10:02:10;;;;;;;10.90;6.10;;;7.40;99.90;;;;;;5033796;28;20017;-71
2022/01/22 10:04:38;;;;;;;11.65;6.03;;;7.40;99.90;;;;;;5016225;28;20022;-71
2022/01/22 10:07:04;;;;;;;9.52;6.00;;;7.40;99.90;;;;;;5036930;28;20435;-71
2022/01/22 10:09:36;;;;;;;12.57;6.40;;;7.40;99.90;;;;;;5035768;28;20079;-70
2022/01/22 10:12:17;;;;;;;10.93;5.72;;;7.40;99.90;;;;;;5034929;28;20053;-71
2022/01/22 10:15:13;;;;;;;9.68;5.25;;;7.40;99.90;;;;;;5014480;28;20026;-72
2022/01/22 10:17:48;;;;;;;11.05;5.10;;;7.40;99.90;;;;;;5014236;28;20085;-69
2022/01/22 10:20:29;;;;;;;9.57;4.78;;;7.40;99.90;;;;;;5014591;28;20022;-70
2022/01/22 10:23:02;;;;;;;7.40;3.88;;;7.40;99.90;;;;;;5015494;28;20029;-70
2022/01/22 10:25:39;;;;;;;4.88;3.10;;;7.40;99.90;;;;;;5014826;28;20022;-69
2022/01/22 10:28:17;;;;;;;4.65;2.80;;;7.50;99.90;;;;;;5014507;28;20022;-70
2022/01/22 10:30:45;;;;;;;4.30;2.30;;;7.50;99.90;;;;;;5014136;28;20025;-70
2022/01/22 10:35:55;;;;;;;6.90;3.75;;;7.50;99.90;;;;;;5026730;28;20490;-71
2022/01/22 10:38:21;;;;;;;7.80;3.03;;;7.50;99.90;;;;;;5024486;28;20030;-70
2022/01/22 10:40:49;;;;;;;5.82;3.22;;;7.50;99.90;;;;;;5030416;28;20017;-70
2022/01/22 10:43:31;;;;;;;4.13;1.90;;;7.60;99.90;;;;;;5027157;28;20018;-70
2022/01/22 10:48:52;;;;;;;4.35;1.98;;;7.50;99.90;;;;;;5030733;28;20033;-71
2022/01/22 10:51:18;;;;;;;4.28;1.60;;;7.50;99.90;;;;;;5026225;28;20113;-70
2022/01/22 10:53:45;;;;;;;5.65;1.70;;;7.50;99.90;;;;;;5026698;28;20029;-69
2022/01/22 10:56:14;;;;;;;4.75;1.90;;;7.50;99.90;;;;;;5025461;28;20022;-70
2022/01/22 10:59:03;;;;;;;3.80;2.00;;;7.40;99.90;;;;;;5010171;28;20045;-70
2022/01/22 11:01:43;;;;;;;2.85;1.60;;;7.50;99.90;;;;;;5027665;28;20504;-70
2022/01/22 11:04:14;;;;;;;2.67;1.50;;;7.40;99.90;;;;;;5026921;28;20032;-70
2022/01/22 11:06:48;;;;;;;;;;;7.30;99.90;;;;;;5008989;28;20368;-70
2022/01/22 11:09:14;;;;;;;3.85;1.85;;;7.30;99.90;;;;;;5025266;28;19916;-71
2022/01/22 11:11:41;;;;;;;8.68;2.35;;;7.40;99.90;;;;;;5025415;28;20188;-68
2022/01/22 11:14:10;;;;;;;10.48;2.92;;;7.40;99.90;;;;;;5026768;28;20026;-68
2022/01/22 11:16:40;;;;;;;8.98;2.80;;;7.40;99.90;;;;;;5032547;28;20021;-67
2022/01/22 11:19:10;;;;;;;4.88;2.80;;;7.40;99.90;;;;;;5027449;28;20048;-68
2022/01/22 11:21:44;;;;;;;4.82;2.67;;;7.40;99.90;;;;;;5024363;28;20048;-66
2022/01/22 11:24:21;;;;;;;7.95;3.17;;;7.40;99.90;;;;;;5027540;28;20039;-68
2022/01/22 11:26:53;;;;;;;6.70;2.10;;;7.40;99.90;;;;;;5027313;28;20076;-68
2022/01/22 11:29:23;;;;;;;8.38;2.67;;;7.40;99.90;;;;;;5027353;28;20376;-68
2022/01/22 11:31:51;;;;;;;6.78;2.17;;;7.40;99.90;;;;;;5026469;28;20026;-68
2022/01/22 11:34:22;;;;;;;7.55;2.00;;;7.50;99.90;;;;;;5029818;28;20053;-68
2022/01/22 11:36:57;;;;;;;7.90;2.63;;;7.50;99.90;;;;;;5026909;28;20026;-68
2022/01/22 11:39:25;;;;;;;11.07;2.63;;;7.50;99.90;;;;;;5025074;28;20106;-69
2022/01/22 11:41:57;;;;;;;5.97;3.30;;;7.40;99.90;;;;;;5026362;28;20022;-69
2022/01/22 11:44:32;;;;;;;10.80;3.20;;;7.40;99.90;;;;;;5025950;28;20058;-68
2022/01/22 11:47:12;;;;;;;13.18;3.50;;;7.40;99.90;;;;;;5020714;28;20245;-68
2022/01/22 11:49:39;;;;;;;5.70;2.55;;;7.40;99.90;;;;;;5013818;28;20030;-68
2022/01/22 11:52:07;;;;;;;4.40;3.20;;;7.40;99.90;;;;;;5013862;28;20061;-69
2022/01/22 11:54:54;;;;;;;9.50;2.63;;;7.50;99.90;;;;;;5014327;28;20026;-68
2022/01/22 11:57:20;;;;;;;13.63;2.28;;;7.60;99.90;;;;;;5015062;28;20031;-69
2022/01/22 11:59:46;;;;;;;6.53;2.30;;;7.60;99.90;;;;;;5013657;28;20507;-69
2022/01/22 12:02:16;;;;;;;8.52;2.20;;;7.60;99.90;;;;;;4996362;28;20057;-67
2022/01/22 12:04:42;;;;;;;6.25;2.42;;;7.60;99.90;;;;;;5014223;28;20026;-67
2022/01/22 12:07:07;;;;;;;8.07;2.50;;;7.60;99.90;;;;;;5013922;28;20041;-67
2022/01/22 12:09:35;;;;;;;5.03;2.45;;;7.50;99.90;;;;;;5013822;28;20080;-68
2022/01/22 12:15:14;;;;;;;7.60;2.00;;;7.70;99.90;;;;;;5015984;28;20076;-67
2022/01/22 12:22:58;;;;;;;8.20;1.98;;;7.80;99.90;;;;;;5016026;28;20431;-67
2022/01/22 12:25:24;;;;;;;5.75;2.50;;;7.90;99.90;;;;;;4998253;28;20061;-68
2022/01/22 12:27:53;;;;;;;4.70;2.30;;;7.80;99.90;;;;;;5016364;28;20021;-67
2022/01/22 12:30:43;;;;;;;7.88;2.42;;;7.90;99.90;;;;;;4998160;28;20494;-67
2022/01/22 12:33:13;;;;;;;3.70;2.03;;;7.90;99.90;;;;;;5016230;28;20018;-68
2022/01/22 12:38:27;;;;;;;4.20;1.65;;;7.80;99.90;;;;;;5088705;22;20088;-64
2022/01/22 12:40:58;;;;;;;5.00;2.00;;;7.70;99.90;;;;;;5056917;28;20507;-65
2022/01/22 12:43:37;;;;;;;3.72;1.60;;;7.70;99.90;;;;;;5074664;28;20025;-64
2022/01/22 12:46:03;;;;;;;5.93;2.67;;;7.80;99.90;;;;;;5074866;28;20035;-65
2022/01/22 12:48:32;;;;;;;5.30;2.08;;;7.80;99.90;;;;;;5074697;28;20014;-64
2022/01/22 12:51:05;;;;;;;4.40;2.05;;;7.80;99.90;;;;;;5074789;28;20016;-64
2022/01/22 12:53:32;;;;;;;3.30;2.40;;;7.80;99.90;;;;;;5074286;28;20378;-64
2022/01/22 12:58:25;;;;;;;3.83;2.38;;;7.70;99.90;;;;;;5074975;28;20085;-64
2022/01/22 13:00:53;;;;;;;9.27;3.58;;;7.70;99.90;;;;;;5073853;28;20025;-64
2022/01/22 13:03:36;;;;;;;12.30;3.97;;;7.70;99.90;;;;;;5056981;28;20056;-64
2022/01/22 13:06:02;;;;;;;8.23;3.65;;;7.70;99.90;;;;;;5072914;28;20135;-66
2022/01/22 13:08:30;;;;;;;10.95;3.45;;;7.70;99.90;;;;;;5074763;28;20028;-66
2022/01/22 13:10:59;;;;;;;9.07;3.65;;;7.80;99.90;;;;;;5074770;28;20055;-64
2022/01/22 13:13:26;;;;;;;5.47;2.67;;;7.80;99.90;;;;;;5074306;28;20021;-65
2022/01/22 13:16:05;;;;;;;4.93;2.70;;;7.80;99.90;;;;;;5074337;28;20611;-64
2022/01/22 13:19:00;;;;;;;5.32;2.33;;;7.80;99.90;;;;;;5075189;28;20061;-64
2022/01/22 13:21:31;;;;;;;4.95;2.45;;;7.80;99.90;;;;;;5074229;28;20053;-65
2022/01/22 13:24:01;;;;;;;3.35;1.98;;;7.70;99.90;;;;;;5072560;28;20017;-65
2022/01/22 13:26:53;;;;;;;4.18;1.70;;;7.70;99.90;;;;;;5069181;28;20549;-65
2022/01/22 13:29:21;;;;;;;3.80;2.20;;;7.70;99.90;;;;;;5053045;28;20028;-65
2022/01/22 13:32:08;;;;;;;5.53;2.30;;;7.70;99.90;;;;;;5053972;28;20092;-64
2022/01/22 13:34:56;;;;;;;4.93;2.25;;;7.60;99.90;;;;;;5053887;28;20025;-64
2022/01/22 13:48:34;;;;;;;2.33;1.35;;;7.80;99.90;;;;;;5014372;28;20033;-65
2022/01/22 13:51:02;;;;;;;1.67;1.30;;;7.80;99.90;;;;;;5054036;28;20029;-64
2022/01/22 13:53:29;;;;;;;3.35;1.40;;;7.70;99.90;;;;;;5035582;28;20021;-64
2022/01/22 13:56:08;;;;;;;3.55;1.73;;;7.70;99.90;;;;;;5053565;28;20085;-64
2022/01/22 13:58:35;;;;;;;2.80;1.63;;;7.70;99.90;;;;;;5054136;28;20162;-64
2022/01/22 14:01:07;;;;;;;4.38;1.70;;;7.70;99.90;;;;;;5053989;28;20047;-64
2022/01/22 14:03:44;;;;;;;4.13;1.98;;;7.70;99.90;;;;;;5053980;28;20021;-65
2022/01/22 14:06:11;;;;;;;2.70;1.20;;;7.70;99.90;;;;;;5053194;28;20028;-64
2022/01/22 14:08:37;;;;;;;4.30;1.40;;;7.70;99.90;;;;;;5053382;28;20036;-65
2022/01/22 14:11:11;;;;;;;8.93;2.78;;;7.80;99.90;;;;;;5036030;28;20026;-65
2022/01/22 14:13:38;;;;;;;6.85;3.50;;;7.90;99.90;;;;;;5057676;28;20027;-65
2022/01/22 14:16:15;;;;;;;5.10;1.40;;;7.90;99.90;;;;;;5057850;28;20025;-65
2022/01/22 14:18:43;;;;;;;3.60;1.42;;;7.90;99.90;;;;;;5058368;28;20025;-64
2022/01/22 14:21:17;;;;;;;5.43;1.50;;;7.90;99.90;;;;;;5058210;28;20096;-65
2022/01/22 14:23:43;;;;;;;2.67;1.70;;;7.80;99.90;;;;;;5062455;28;20038;-65
2022/01/22 14:26:27;;;;;;;5.72;1.60;;;7.80;99.90;;;;;;5067203;28;20034;-65
2022/01/22 14:29:01;;;;;;;2.90;1.05;;;7.80;99.90;;;;;;5065522;28;20017;-65
2022/01/22 14:31:47;;;;;;;4.57;1.27;;;7.80;99.90;;;;;;5067517;28;20031;-64
2022/01/22 14:34:24;;;;;;;9.88;1.88;;;7.70;99.90;;;;;;5076806;28;20032;-64
2022/01/22 14:36:49;;;;;;;5.55;1.15;;;7.70;99.90;;;;;;5076108;28;20090;-64
2022/01/22 14:39:30;;;;;;;6.03;1.33;;;7.60;99.90;;;;;;5061871;28;20044;-64
2022/01/22 14:44:56;;;;;;;1.90;1.10;;;7.50;99.90;;;;;;5065554;28;20523;-64
2022/01/22 14:47:25;;;;;;;3.75;1.45;;;7.40;99.90;;;;;;5064881;28;20028;-65
2022/01/22 14:49:54;;;;;;;3.17;1.25;;;7.40;99.90;;;;;;5064799;28;20013;-65
2022/01/22 14:52:24;;;;;;;8.40;1.50;;;7.30;99.90;;;;;;5062424;28;20025;-64
2022/01/22 14:54:52;;;;;;;8.63;1.45;;;7.30;99.90;;;;;;5076206;28;20477;-64
2022/01/22 14:57:27;;;;;;;7.43;1.50;;;7.30;99.90;;;;;;5076933;28;20047;-64
2022/01/22 14:59:53;;;;;;;3.17;1.02;;;7.20;99.90;;;;;;5075666;28;20025;-64
2022/01/22 15:02:18;;;;;;;3.15;1.40;;;7.20;99.90;;;;;;5074364;28;20074;-65
2022/01/22 15:04:44;;;;;;;7.53;1.30;;;7.30;99.90;;;;;;5066082;28;20079;-64
2022/01/22 15:07:12;;;;;;;3.35;1.58;;;7.30;99.90;;;;;;5057609;28;20029;-64
2022/01/22 15:09:43;;;;;;;5.65;1.65;;;7.30;99.90;;;;;;5056948;28;20021;-65
2022/01/22 15:12:10;;;;;;;3.20;1.55;;;7.30;99.90;;;;;;5056827;28;20082;-64
2022/01/22 15:14:37;;;;;;;3.15;1.10;;;7.30;99.90;;;;;;5057107;28;20028;-64
2022/01/22 15:19:33;;;;;;;6.43;1.70;;;7.40;99.90;;;;;;5056189;28;20059;-64